North Kingstown, RI (02852)

7:24 AM EDT on April 29, 2017 (GMT -0400)
Stone Gate | | Change Station

Elev 110 ft 41.57 °N, 71.47 °W | Updated 1 second ago

Mostly Cloudy
Mostly Cloudy
61.0 °F
Feels Like 61.0 °F
N
0.9
Wind Variable Wind from SSW
Gusts 2.0 mph

Today
High -- | Low -- °F
--% Chance of Precip.
Yesterday
High -- | Low -- °F
Precip. -- in
Pressure 29.97 in
Visibility 10.0 miles
Clouds Few 5500 ft
Scattered Clouds 11000 ft
Overcast 22000 ft
Dew Point 56 °F
Humidity 83%
Rainfall 0.00 in
Snow Depth Not available.
5:45 AM 7:41 PM
Waxing Crescent, 13% visible
METAR KPVD 291051Z COR 18006KT 10SM FEW055 SCT110 OVC220 16/12 A2997 RMK AO2 SLP149 T01610117 $
Pressure 29.97 in
Visibility 10.0 miles
Clouds Few 5500 ft
Scattered Clouds 11000 ft
Overcast 22000 ft
Dew Point 56 °F
Humidity 83%
Rainfall 0.00 in
Snow Depth Not available.
5:45 AM 7:41 PM
Waxing Crescent, 13% visible
METAR KPVD 291051Z COR 18006KT 10SM FEW055 SCT110 OVC220 16/12 A2997 RMK AO2 SLP149 T01610117 $

Get Severe Weather Alerts

Thanks for signing up!

Be on the lookout for a verification email in your inbox.

You'll start receiving the daily forecast at 8 AM.

×

10-Day Weather Forecast

Almanac

Astronomy

Apr. 29, 2017 Rise Set
Actual Time
Civil Twilight
Nautical Twilight
Astronomical Twilight
Moon
Length of Visible Light
Length of Day
Tomorrow will be .
, % of the Moon is Illuminated

Today's Extremes

State Highs State Lows

Community

WunderPhotos

WunderBlog® & News

Nearby

Air Quality

  Air Quality AQ Index Pollutant
Not available.

Snow Depth

Station Depth Elevation

Earthquake Activity

City Distance Mag. Time & Date
Minimum magnitude displayed is 2.5.

Coastal Water Temperatures

Place Temperature

Stations

Nearby Weather Stations

Station Location Temp. Windchill Dew Point Humidity Wind Precip. Elev Updated Type
                   

Watches & Warnings

There are currently no watches in effect.